KCBK/CBK METAR and TAF weather

Enter ICAO airport designator
Station Type Date Time Source
KCBK METAR 2021/01/27 13:35 UTC NOAA

KCBK 271335Z AUTO 30005KT 5SM OVC001 M21/M23 A3023 RMK AO2 PWINO


Station Type Date Time Source
KCBK Decoded METAR 2021/01/27 13:35 UTC NOAA

Station name not available
Jan 27, 2021 - 08:35 AM EST / 2021.01.27 1335 UTC
Wind: from the WNW (300 degrees) at 6 MPH (5 KT):0
Visibility: 5 mile(s):0
Sky conditions: overcast
Temperature: -5 F (-21 C)
Windchill: -18 F (-28 C):2
Dew Point: -9 F (-23 C)
Relative Humidity: 83%
Pressure (altimeter): 30.23 in. Hg (1023 hPa)
ob: KCBK 271335Z AUTO 30005KT 5SM OVC001 M21/M23 A3023 RMK AO2 PWINO
cycle: 13

Station Type Date Time Source
KCBK TAF UTC NOAA

Error!

Example: see airport list